sensor_id;sensor_type;location;lat;lon;timestamp;P1;durP1;ratioP1;P2;durP2;ratioP2
41139;SDS011;26881;48.784;9.192;2023-04-05T00:05:16;8.53;;;5.30;;
41139;SDS011;26881;48.784;9.192;2023-04-05T00:10:41;8.20;;;5.43;;
41139;SDS011;26881;48.784;9.192;2023-04-05T00:16:03;12.20;;;6.10;;
41139;SDS011;26881;48.784;9.192;2023-04-05T00:21:26;5.73;;;4.83;;
41139;SDS011;26881;48.784;9.192;2023-04-05T00:26:48;6.53;;;5.27;;
41139;SDS011;26881;48.784;9.192;2023-04-05T00:32:10;6.50;;;4.87;;
41139;SDS011;26881;48.784;9.192;2023-04-05T00:37:32;8.33;;;5.00;;
41139;SDS011;26881;48.784;9.192;2023-04-05T00:42:53;6.50;;;5.30;;
41139;SDS011;26881;48.784;9.192;2023-04-05T00:48:15;6.80;;;4.70;;
41139;SDS011;26881;48.784;9.192;2023-04-05T00:53:37;9.50;;;5.50;;
41139;SDS011;26881;48.784;9.192;2023-04-05T00:59:01;9.37;;;5.13;;
41139;SDS011;26881;48.784;9.192;2023-04-05T01:04:27;8.93;;;5.53;;
41139;SDS011;26881;48.784;9.192;2023-04-05T01:09:57;6.63;;;5.27;;
41139;SDS011;26881;48.784;9.192;2023-04-05T01:15:20;8.07;;;5.20;;
41139;SDS011;26881;48.784;9.192;2023-04-05T01:20:47;8.37;;;5.30;;
41139;SDS011;26881;48.784;9.192;2023-04-05T01:37:46;8.20;;;5.00;;
41139;SDS011;26881;48.784;9.192;2023-04-05T01:43:14;7.27;;;4.97;;
41139;SDS011;26881;48.784;9.192;2023-04-05T01:48:36;7.90;;;5.13;;
41139;SDS011;26881;48.784;9.192;2023-04-05T01:53:58;9.10;;;5.90;;
41139;SDS011;26881;48.784;9.192;2023-04-05T01:59:20;8.20;;;5.60;;
41139;SDS011;26881;48.784;9.192;2023-04-05T02:04:42;8.30;;;5.87;;
41139;SDS011;26881;48.784;9.192;2023-04-05T02:10:05;10.93;;;5.77;;
41139;SDS011;26881;48.784;9.192;2023-04-05T02:15:27;7.43;;;5.37;;
41139;SDS011;26881;48.784;9.192;2023-04-05T02:20:49;10.20;;;5.93;;
41139;SDS011;26881;48.784;9.192;2023-04-05T02:26:12;10.43;;;5.80;;
41139;SDS011;26881;48.784;9.192;2023-04-05T02:31:33;7.17;;;5.63;;
41139;SDS011;26881;48.784;9.192;2023-04-05T02:36:55;10.13;;;5.50;;
41139;SDS011;26881;48.784;9.192;2023-04-05T02:42:17;7.80;;;5.63;;
41139;SDS011;26881;48.784;9.192;2023-04-05T02:47:39;11.10;;;5.87;;
41139;SDS011;26881;48.784;9.192;2023-04-05T02:53:01;8.17;;;5.63;;
41139;SDS011;26881;48.784;9.192;2023-04-05T02:58:23;9.27;;;6.30;;
41139;SDS011;26881;48.784;9.192;2023-04-05T03:03:45;8.20;;;5.70;;
41139;SDS011;26881;48.784;9.192;2023-04-05T03:09:06;12.30;;;5.77;;
41139;SDS011;26881;48.784;9.192;2023-04-05T03:14:29;7.87;;;5.73;;
41139;SDS011;26881;48.784;9.192;2023-04-05T03:19:52;14.43;;;6.77;;
41139;SDS011;26881;48.784;9.192;2023-04-05T03:25:13;8.23;;;6.53;;
41139;SDS011;26881;48.784;9.192;2023-04-05T03:30:36;8.73;;;6.07;;
41139;SDS011;26881;48.784;9.192;2023-04-05T03:35:58;8.67;;;6.67;;
41139;SDS011;26881;48.784;9.192;2023-04-05T03:41:20;8.23;;;6.03;;
41139;SDS011;26881;48.784;9.192;2023-04-05T03:46:41;11.27;;;6.87;;
41139;SDS011;26881;48.784;9.192;2023-04-05T03:52:04;9.50;;;6.60;;
41139;SDS011;26881;48.784;9.192;2023-04-05T03:57:26;8.70;;;6.30;;
41139;SDS011;26881;48.784;9.192;2023-04-05T04:02:51;9.47;;;6.70;;
41139;SDS011;26881;48.784;9.192;2023-04-05T04:08:13;8.53;;;6.73;;
41139;SDS011;26881;48.784;9.192;2023-04-05T04:13:35;8.17;;;6.17;;
41139;SDS011;26881;48.784;9.192;2023-04-05T04:18:57;13.03;;;7.20;;
41139;SDS011;26881;48.784;9.192;2023-04-05T04:24:19;8.93;;;6.40;;
41139;SDS011;26881;48.784;9.192;2023-04-05T04:29:41;9.20;;;6.27;;
41139;SDS011;26881;48.784;9.192;2023-04-05T04:35:07;8.60;;;5.97;;
41139;SDS011;26881;48.784;9.192;2023-04-05T04:40:30;8.83;;;6.47;;
41139;SDS011;26881;48.784;9.192;2023-04-05T04:45:59;11.70;;;6.77;;
41139;SDS011;26881;48.784;9.192;2023-04-05T04:51:21;14.57;;;7.33;;
41139;SDS011;26881;48.784;9.192;2023-04-05T04:56:42;9.17;;;5.60;;
41139;SDS011;26881;48.784;9.192;2023-04-05T05:02:04;9.30;;;6.50;;
41139;SDS011;26881;48.784;9.192;2023-04-05T05:07:26;10.50;;;7.27;;
41139;SDS011;26881;48.784;9.192;2023-04-05T05:12:49;11.30;;;7.00;;
41139;SDS011;26881;48.784;9.192;2023-04-05T05:18:12;12.20;;;6.87;;
41139;SDS011;26881;48.784;9.192;2023-04-05T05:23:34;10.63;;;6.47;;
41139;SDS011;26881;48.784;9.192;2023-04-05T05:28:59;10.10;;;6.97;;
41139;SDS011;26881;48.784;9.192;2023-04-05T05:34:22;9.67;;;6.53;;
41139;SDS011;26881;48.784;9.192;2023-04-05T05:39:43;8.83;;;6.63;;
41139;SDS011;26881;48.784;9.192;2023-04-05T05:45:06;10.70;;;6.87;;
41139;SDS011;26881;48.784;9.192;2023-04-05T05:50:28;10.87;;;6.60;;
41139;SDS011;26881;48.784;9.192;2023-04-05T05:55:53;12.50;;;6.60;;
41139;SDS011;26881;48.784;9.192;2023-04-05T06:01:15;9.63;;;6.83;;
41139;SDS011;26881;48.784;9.192;2023-04-05T06:06:36;10.50;;;6.97;;
41139;SDS011;26881;48.784;9.192;2023-04-05T06:11:59;8.77;;;7.23;;
41139;SDS011;26881;48.784;9.192;2023-04-05T06:17:21;11.63;;;7.40;;
41139;SDS011;26881;48.784;9.192;2023-04-05T06:22:43;8.70;;;6.60;;
41139;SDS011;26881;48.784;9.192;2023-04-05T06:28:05;12.57;;;7.53;;
41139;SDS011;26881;48.784;9.192;2023-04-05T06:33:27;12.67;;;7.33;;
41139;SDS011;26881;48.784;9.192;2023-04-05T06:38:49;17.30;;;8.33;;
41139;SDS011;26881;48.784;9.192;2023-04-05T06:44:12;12.87;;;7.50;;
41139;SDS011;26881;48.784;9.192;2023-04-05T06:49:34;12.97;;;7.80;;
41139;SDS011;26881;48.784;9.192;2023-04-05T06:54:56;18.47;;;7.73;;
41139;SDS011;26881;48.784;9.192;2023-04-05T07:00:18;14.60;;;8.17;;
41139;SDS011;26881;48.784;9.192;2023-04-05T07:05:39;14.27;;;8.73;;
41139;SDS011;26881;48.784;9.192;2023-04-05T07:11:01;25.63;;;8.80;;
41139;SDS011;26881;48.784;9.192;2023-04-05T07:16:23;14.93;;;8.53;;
41139;SDS011;26881;48.784;9.192;2023-04-05T07:21:46;34.53;;;10.90;;
41139;SDS011;26881;48.784;9.192;2023-04-05T07:27:08;26.93;;;9.80;;
41139;SDS011;26881;48.784;9.192;2023-04-05T07:32:30;18.70;;;8.20;;
41139;SDS011;26881;48.784;9.192;2023-04-05T07:37:52;15.37;;;9.23;;
41139;SDS011;26881;48.784;9.192;2023-04-05T07:43:14;27.80;;;9.43;;
41139;SDS011;26881;48.784;9.192;2023-04-05T07:48:36;21.10;;;9.03;;
41139;SDS011;26881;48.784;9.192;2023-04-05T07:53:58;20.27;;;9.70;;
41139;SDS011;26881;48.784;9.192;2023-04-05T07:59:23;19.60;;;9.93;;
41139;SDS011;26881;48.784;9.192;2023-04-05T08:04:45;14.90;;;9.23;;
41139;SDS011;26881;48.784;9.192;2023-04-05T08:10:07;17.50;;;9.90;;
41139;SDS011;26881;48.784;9.192;2023-04-05T08:15:29;35.03;;;10.40;;
41139;SDS011;26881;48.784;9.192;2023-04-05T08:20:53;25.73;;;10.17;;
41139;SDS011;26881;48.784;9.192;2023-04-05T08:26:16;17.67;;;9.53;;
41139;SDS011;26881;48.784;9.192;2023-04-05T08:31:38;15.70;;;9.20;;
41139;SDS011;26881;48.784;9.192;2023-04-05T08:37:00;13.70;;;8.00;;
41139;SDS011;26881;48.784;9.192;2023-04-05T08:42:22;16.50;;;7.90;;
41139;SDS011;26881;48.784;9.192;2023-04-05T08:47:51;18.97;;;8.03;;
41139;SDS011;26881;48.784;9.192;2023-04-05T08:53:14;11.20;;;7.23;;
41139;SDS011;26881;48.784;9.192;2023-04-05T08:58:36;15.97;;;8.07;;
41139;SDS011;26881;48.784;9.192;2023-04-05T09:04:01;12.13;;;6.23;;
41139;SDS011;26881;48.784;9.192;2023-04-05T09:09:26;26.17;;;6.93;;
41139;SDS011;26881;48.784;9.192;2023-04-05T09:14:53;11.83;;;6.43;;
41139;SDS011;26881;48.784;9.192;2023-04-05T09:20:16;13.97;;;4.90;;
41139;SDS011;26881;48.784;9.192;2023-04-05T09:25:38;6.60;;;4.67;;
41139;SDS011;26881;48.784;9.192;2023-04-05T09:31:02;15.83;;;5.07;;
41139;SDS011;26881;48.784;9.192;2023-04-05T09:36:24;12.00;;;4.57;;
41139;SDS011;26881;48.784;9.192;2023-04-05T09:42:03;5.03;;;4.28;;
41139;SDS011;26881;48.784;9.192;2023-04-05T09:47:28;20.60;;;5.57;;
41139;SDS011;26881;48.784;9.192;2023-04-05T09:53:12;7.40;;;4.50;;
41139;SDS011;26881;48.784;9.192;2023-04-05T09:58:39;5.80;;;3.85;;
41139;SDS011;26881;48.784;9.192;2023-04-05T10:04:01;12.57;;;3.65;;
41139;SDS011;26881;48.784;9.192;2023-04-05T10:09:23;6.78;;;4.07;;
41139;SDS011;26881;48.784;9.192;2023-04-05T10:14:45;7.97;;;4.32;;
41139;SDS011;26881;48.784;9.192;2023-04-05T10:20:17;9.18;;;4.43;;
41139;SDS011;26881;48.784;9.192;2023-04-05T10:25:59;6.05;;;4.18;;
41139;SDS011;26881;48.784;9.192;2023-04-05T10:31:32;3.88;;;3.47;;
41139;SDS011;26881;48.784;9.192;2023-04-05T10:37:04;7.53;;;4.15;;
41139;SDS011;26881;48.784;9.192;2023-04-05T10:42:26;9.27;;;4.20;;
41139;SDS011;26881;48.784;9.192;2023-04-05T10:47:53;8.32;;;5.00;;
41139;SDS011;26881;48.784;9.192;2023-04-05T10:53:19;9.50;;;4.95;;
41139;SDS011;26881;48.784;9.192;2023-04-05T10:58:42;6.97;;;4.50;;
41139;SDS011;26881;48.784;9.192;2023-04-05T11:04:15;6.82;;;4.20;;
41139;SDS011;26881;48.784;9.192;2023-04-05T11:09:39;10.52;;;4.28;;
41139;SDS011;26881;48.784;9.192;2023-04-05T11:21:04;23.77;;;5.43;;
41139;SDS011;26881;48.784;9.192;2023-04-05T11:26:30;10.90;;;4.18;;
41139;SDS011;26881;48.784;9.192;2023-04-05T11:32:10;7.70;;;4.07;;
41139;SDS011;26881;48.784;9.192;2023-04-05T11:43:13;7.85;;;4.85;;
41139;SDS011;26881;48.784;9.192;2023-04-05T11:48:35;15.93;;;5.13;;
41139;SDS011;26881;48.784;9.192;2023-04-05T11:53:57;36.70;;;7.32;;
41139;SDS011;26881;48.784;9.192;2023-04-05T11:59:19;9.63;;;3.92;;
41139;SDS011;26881;48.784;9.192;2023-04-05T12:04:41;12.32;;;4.07;;
41139;SDS011;26881;48.784;9.192;2023-04-05T12:10:05;11.05;;;4.00;;
41139;SDS011;26881;48.784;9.192;2023-04-05T12:15:37;26.65;;;5.25;;
41139;SDS011;26881;48.784;9.192;2023-04-05T12:21:01;13.93;;;5.28;;
41139;SDS011;26881;48.784;9.192;2023-04-05T12:26:33;17.08;;;4.70;;
41139;SDS011;26881;48.784;9.192;2023-04-05T12:31:56;15.82;;;4.80;;
41139;SDS011;26881;48.784;9.192;2023-04-05T12:37:18;13.15;;;4.20;;
41139;SDS011;26881;48.784;9.192;2023-04-05T12:42:40;24.30;;;4.05;;
41139;SDS011;26881;48.784;9.192;2023-04-05T12:48:02;4.88;;;3.58;;
41139;SDS011;26881;48.784;9.192;2023-04-05T12:53:25;5.85;;;3.22;;
41139;SDS011;26881;48.784;9.192;2023-04-05T12:58:49;8.77;;;4.07;;
41139;SDS011;26881;48.784;9.192;2023-04-05T13:04:11;6.40;;;3.72;;
41139;SDS011;26881;48.784;9.192;2023-04-05T13:09:37;15.65;;;4.70;;
41139;SDS011;26881;48.784;9.192;2023-04-05T13:14:59;12.93;;;3.72;;
41139;SDS011;26881;48.784;9.192;2023-04-05T13:20:21;7.18;;;4.00;;
41139;SDS011;26881;48.784;9.192;2023-04-05T13:25:43;4.38;;;3.55;;
41139;SDS011;26881;48.784;9.192;2023-04-05T13:31:08;6.25;;;3.83;;
41139;SDS011;26881;48.784;9.192;2023-04-05T13:36:29;6.30;;;4.38;;
41139;SDS011;26881;48.784;9.192;2023-04-05T13:41:51;11.65;;;4.15;;
41139;SDS011;26881;48.784;9.192;2023-04-05T13:47:13;5.07;;;3.67;;
41139;SDS011;26881;48.784;9.192;2023-04-05T13:52:36;4.90;;;3.78;;
41139;SDS011;26881;48.784;9.192;2023-04-05T13:57:58;5.63;;;3.85;;
41139;SDS011;26881;48.784;9.192;2023-04-05T14:03:20;10.77;;;3.97;;
41139;SDS011;26881;48.784;9.192;2023-04-05T14:08:42;4.90;;;3.40;;
41139;SDS011;26881;48.784;9.192;2023-04-05T14:14:04;5.43;;;3.95;;
41139;SDS011;26881;48.784;9.192;2023-04-05T14:19:25;8.05;;;4.65;;
41139;SDS011;26881;48.784;9.192;2023-04-05T14:24:47;6.40;;;3.53;;
41139;SDS011;26881;48.784;9.192;2023-04-05T14:30:09;6.13;;;4.40;;
41139;SDS011;26881;48.784;9.192;2023-04-05T14:35:31;6.53;;;3.70;;
41139;SDS011;26881;48.784;9.192;2023-04-05T14:40:54;8.27;;;4.70;;
41139;SDS011;26881;48.784;9.192;2023-04-05T14:46:16;7.60;;;4.05;;
41139;SDS011;26881;48.784;9.192;2023-04-05T14:51:41;7.32;;;3.55;;
41139;SDS011;26881;48.784;9.192;2023-04-05T14:57:02;7.13;;;3.97;;
41139;SDS011;26881;48.784;9.192;2023-04-05T15:02:24;4.28;;;3.80;;
41139;SDS011;26881;48.784;9.192;2023-04-05T15:07:47;7.10;;;3.95;;
41139;SDS011;26881;48.784;9.192;2023-04-05T15:13:09;4.95;;;4.07;;
41139;SDS011;26881;48.784;9.192;2023-04-05T15:18:31;6.75;;;4.10;;
41139;SDS011;26881;48.784;9.192;2023-04-05T15:23:52;4.63;;;3.58;;
41139;SDS011;26881;48.784;9.192;2023-04-05T15:29:14;4.43;;;3.85;;
41139;SDS011;26881;48.784;9.192;2023-04-05T15:34:36;5.50;;;3.53;;
41139;SDS011;26881;48.784;9.192;2023-04-05T15:39:58;5.80;;;3.55;;
41139;SDS011;26881;48.784;9.192;2023-04-05T15:45:23;5.03;;;3.67;;
41139;SDS011;26881;48.784;9.192;2023-04-05T15:50:45;5.35;;;3.30;;
41139;SDS011;26881;48.784;9.192;2023-04-05T15:56:07;6.80;;;3.42;;
41139;SDS011;26881;48.784;9.192;2023-04-05T16:01:29;4.47;;;3.63;;
41139;SDS011;26881;48.784;9.192;2023-04-05T16:06:51;4.38;;;3.28;;
41139;SDS011;26881;48.784;9.192;2023-04-05T16:12:13;11.23;;;3.90;;
41139;SDS011;26881;48.784;9.192;2023-04-05T16:17:34;7.07;;;3.65;;
41139;SDS011;26881;48.784;9.192;2023-04-05T16:22:57;5.47;;;3.80;;
41139;SDS011;26881;48.784;9.192;2023-04-05T16:28:18;4.32;;;3.35;;
41139;SDS011;26881;48.784;9.192;2023-04-05T16:33:40;11.30;;;3.63;;
41139;SDS011;26881;48.784;9.192;2023-04-05T16:39:02;4.88;;;3.38;;
41139;SDS011;26881;48.784;9.192;2023-04-05T16:44:24;5.97;;;3.88;;
41139;SDS011;26881;48.784;9.192;2023-04-05T16:49:46;5.95;;;3.72;;
41139;SDS011;26881;48.784;9.192;2023-04-05T16:55:08;5.22;;;4.25;;
41139;SDS011;26881;48.784;9.192;2023-04-05T17:00:30;7.22;;;4.28;;
41139;SDS011;26881;48.784;9.192;2023-04-05T17:05:52;7.85;;;4.53;;
41139;SDS011;26881;48.784;9.192;2023-04-05T17:11:14;8.00;;;4.93;;
41139;SDS011;26881;48.784;9.192;2023-04-05T17:16:36;5.60;;;4.63;;
41139;SDS011;26881;48.784;9.192;2023-04-05T17:22:00;5.18;;;4.22;;
41139;SDS011;26881;48.784;9.192;2023-04-05T17:27:22;7.30;;;4.18;;
41139;SDS011;26881;48.784;9.192;2023-04-05T17:32:46;6.68;;;4.15;;
41139;SDS011;26881;48.784;9.192;2023-04-05T17:38:08;5.30;;;3.90;;
41139;SDS011;26881;48.784;9.192;2023-04-05T17:43:30;7.00;;;4.88;;
41139;SDS011;26881;48.784;9.192;2023-04-05T17:48:52;8.07;;;4.40;;
41139;SDS011;26881;48.784;9.192;2023-04-05T17:54:14;7.25;;;4.55;;
41139;SDS011;26881;48.784;9.192;2023-04-05T17:59:36;6.57;;;4.22;;
41139;SDS011;26881;48.784;9.192;2023-04-05T18:04:58;6.32;;;4.88;;
41139;SDS011;26881;48.784;9.192;2023-04-05T18:10:21;7.32;;;4.60;;
41139;SDS011;26881;48.784;9.192;2023-04-05T18:15:43;9.00;;;6.05;;
41139;SDS011;26881;48.784;9.192;2023-04-05T18:21:05;7.47;;;5.43;;
41139;SDS011;26881;48.784;9.192;2023-04-05T18:26:28;7.95;;;5.57;;
41139;SDS011;26881;48.784;9.192;2023-04-05T18:31:51;9.10;;;5.68;;
41139;SDS011;26881;48.784;9.192;2023-04-05T18:37:12;7.60;;;5.75;;
41139;SDS011;26881;48.784;9.192;2023-04-05T18:42:34;8.32;;;5.57;;
41139;SDS011;26881;48.784;9.192;2023-04-05T18:47:57;9.50;;;5.43;;
41139;SDS011;26881;48.784;9.192;2023-04-05T18:53:20;9.88;;;5.70;;
41139;SDS011;26881;48.784;9.192;2023-04-05T18:58:43;9.88;;;4.78;;
41139;SDS011;26881;48.784;9.192;2023-04-05T19:04:05;9.93;;;5.60;;
41139;SDS011;26881;48.784;9.192;2023-04-05T19:09:27;6.90;;;5.18;;
41139;SDS011;26881;48.784;9.192;2023-04-05T19:14:49;8.38;;;5.35;;
41139;SDS011;26881;48.784;9.192;2023-04-05T19:20:13;11.75;;;6.55;;
41139;SDS011;26881;48.784;9.192;2023-04-05T19:25:35;8.85;;;6.50;;
41139;SDS011;26881;48.784;9.192;2023-04-05T19:30:57;7.65;;;6.50;;
41139;SDS011;26881;48.784;9.192;2023-04-05T19:36:19;9.65;;;6.57;;
41139;SDS011;26881;48.784;9.192;2023-04-05T19:41:40;10.90;;;6.95;;
41139;SDS011;26881;48.784;9.192;2023-04-05T19:47:06;12.13;;;6.28;;
41139;SDS011;26881;48.784;9.192;2023-04-05T19:58:08;15.63;;;7.30;;
41139;SDS011;26881;48.784;9.192;2023-04-05T20:03:35;11.73;;;6.57;;
41139;SDS011;26881;48.784;9.192;2023-04-05T20:09:00;11.38;;;6.75;;
41139;SDS011;26881;48.784;9.192;2023-04-05T20:14:29;11.20;;;6.65;;
41139;SDS011;26881;48.784;9.192;2023-04-05T20:20:01;9.23;;;6.93;;
41139;SDS011;26881;48.784;9.192;2023-04-05T21:14:23;10.17;;;7.23;;
41139;SDS011;26881;48.784;9.192;2023-04-05T21:19:45;14.33;;;7.30;;
41139;SDS011;26881;48.784;9.192;2023-04-05T21:25:06;14.27;;;7.60;;
41139;SDS011;26881;48.784;9.192;2023-04-05T21:30:28;10.93;;;7.60;;
41139;SDS011;26881;48.784;9.192;2023-04-05T21:35:50;9.47;;;6.67;;
41139;SDS011;26881;48.784;9.192;2023-04-05T21:41:12;11.60;;;7.50;;
41139;SDS011;26881;48.784;9.192;2023-04-05T21:46:34;13.30;;;7.00;;
41139;SDS011;26881;48.784;9.192;2023-04-05T21:51:56;13.87;;;7.33;;
41139;SDS011;26881;48.784;9.192;2023-04-05T21:57:17;12.27;;;7.07;;
41139;SDS011;26881;48.784;9.192;2023-04-05T22:02:39;9.97;;;7.10;;
41139;SDS011;26881;48.784;9.192;2023-04-05T22:08:01;9.83;;;7.40;;
41139;SDS011;26881;48.784;9.192;2023-04-05T22:13:23;10.20;;;7.07;;
41139;SDS011;26881;48.784;9.192;2023-04-05T22:18:45;11.07;;;7.27;;
41139;SDS011;26881;48.784;9.192;2023-04-05T22:24:07;10.40;;;7.00;;
41139;SDS011;26881;48.784;9.192;2023-04-05T22:29:30;11.07;;;7.20;;
41139;SDS011;26881;48.784;9.192;2023-04-05T22:34:52;11.17;;;7.20;;
41139;SDS011;26881;48.784;9.192;2023-04-05T22:40:13;13.07;;;7.27;;
41139;SDS011;26881;48.784;9.192;2023-04-05T22:45:35;11.43;;;7.00;;
41139;SDS011;26881;48.784;9.192;2023-04-05T22:50:57;8.57;;;6.00;;
41139;SDS011;26881;48.784;9.192;2023-04-05T22:56:19;11.17;;;6.60;;
41139;SDS011;26881;48.784;9.192;2023-04-05T23:01:41;10.47;;;6.37;;
41139;SDS011;26881;48.784;9.192;2023-04-05T23:07:03;8.53;;;6.47;;
41139;SDS011;26881;48.784;9.192;2023-04-05T23:12:25;9.57;;;6.47;;
41139;SDS011;26881;48.784;9.192;2023-04-05T23:17:47;13.80;;;7.90;;
41139;SDS011;26881;48.784;9.192;2023-04-05T23:23:10;14.83;;;8.77;;
41139;SDS011;26881;48.784;9.192;2023-04-05T23:28:32;17.40;;;10.23;;
41139;SDS011;26881;48.784;9.192;2023-04-05T23:33:53;16.93;;;10.17;;
41139;SDS011;26881;48.784;9.192;2023-04-05T23:39:15;14.37;;;9.43;;
41139;SDS011;26881;48.784;9.192;2023-04-05T23:44:37;15.53;;;9.53;;
41139;SDS011;26881;48.784;9.192;2023-04-05T23:49:59;13.00;;;8.93;;
41139;SDS011;26881;48.784;9.192;2023-04-05T23:55:21;13.07;;;8.87;;
